Time;durP1;ratioP1;P1;durP2;ratioP2;P2;SDS_P1;SDS_P2;PMS_P1;PMS_P2;Temp;Humidity;BMP_temperature;BMP_pressure;BME280_temperature;BME280_humidity;BME280_pressure;Samples;Min_cycle;Max_cycle;Signal;HPM_P1;HPM_P2
2021/06/22 00:02:00;;;;;;;7.90;5.70;;;;;;;22.30;61.43;94443.09;2973670;40;20123;-70
2021/06/22 00:04:02;;;;;;;7.78;5.55;;;;;;;22.27;61.65;94447.06;2971551;40;20040;-73
2021/06/22 00:06:04;;;;;;;7.95;5.18;;;;;;;22.18;62.26;94453.81;2974957;39;20144;-71
2021/06/22 00:08:06;;;;;;;8.93;5.35;;;;;;;22.15;62.55;94443.59;2972803;40;20041;-70
2021/06/22 00:10:09;;;;;;;4.82;4.10;;;;;;;22.10;63.08;94448.84;2967274;39;20137;-70
2021/06/22 00:12:11;;;;;;;11.60;4.03;;;;;;;22.09;63.15;94442.69;2971750;39;20381;-69
2021/06/22 00:14:12;;;;;;;6.55;4.85;;;;;;;22.15;63.22;94440.13;2973659;39;20036;-71
2021/06/22 00:16:15;;;;;;;7.60;4.82;;;;;;;22.20;62.97;94445.53;2974559;40;20052;-70
2021/06/22 00:18:16;;;;;;;6.60;4.30;;;;;;;22.29;62.71;94450.31;2971838;39;20071;-71
2021/06/22 00:20:19;;;;;;;7.00;4.53;;;;;;;22.37;62.31;94453.63;2971430;39;20072;-71
2021/06/22 00:22:21;;;;;;;6.68;5.07;;;;;;;22.41;62.43;94457.44;2968174;39;20141;-70
2021/06/22 00:24:23;;;;;;;8.18;6.25;;;;;;;22.45;62.48;94464.72;2974919;39;20169;-71
2021/06/22 00:26:25;;;;;;;8.27;4.57;;;;;;;22.48;62.77;94456.25;2975122;39;20060;-71
2021/06/22 00:28:26;;;;;;;7.03;4.93;;;;;;;22.52;62.71;94442.44;2971355;40;20181;-70
2021/06/22 00:30:28;;;;;;;7.60;4.28;;;;;;;22.57;62.52;94446.00;2974252;39;20060;-70
2021/06/22 00:32:30;;;;;;;6.80;4.22;;;;;;;22.57;62.29;94443.34;2973680;39;20068;-70
2021/06/22 00:34:32;;;;;;;6.78;4.93;;;;;;;22.60;62.39;94444.72;2961306;40;20065;-70
2021/06/22 00:36:33;;;;;;;6.72;4.53;;;;;;;22.59;62.44;94437.78;2973936;39;20182;-71
2021/06/22 00:38:35;;;;;;;6.43;4.68;;;;;;;22.60;62.48;94439.38;2967636;39;20088;-70
2021/06/22 00:40:37;;;;;;;4.85;4.00;;;;;;;22.62;62.41;94430.06;2981031;39;20143;-71
2021/06/22 00:42:41;;;;;;;5.57;4.70;;;;;;;22.65;61.93;94418.94;2975701;39;20132;-71
2021/06/22 00:44:47;;;;;;;8.20;4.60;;;;;;;22.62;61.76;94407.91;2973445;39;20067;-71
2021/06/22 00:46:48;;;;;;;7.90;4.40;;;;;;;22.60;61.73;94418.03;2970533;39;20056;-70
2021/06/22 00:48:50;;;;;;;6.88;4.90;;;;;;;22.60;61.66;94412.69;2968879;39;20408;-71
2021/06/22 00:50:52;;;;;;;6.50;4.50;;;;;;;22.61;61.27;94414.31;2970627;39;20051;-71
2021/06/22 00:52:54;;;;;;;7.60;4.47;;;;;;;22.61;61.45;94415.13;2969455;39;20334;-72
2021/06/22 00:54:57;;;;;;;8.07;4.90;;;;;;;22.59;61.38;94416.41;2969016;40;20049;-83
2021/06/22 00:56:59;;;;;;;6.75;4.43;;;;;;;22.59;61.28;94417.22;2971088;39;20061;-81
2021/06/22 00:59:01;;;;;;;7.63;4.93;;;;;;;22.59;61.18;94411.88;2973837;40;20417;-81
2021/06/22 01:01:03;;;;;;;6.32;4.75;;;;;;;22.59;61.03;94411.88;2970265;40;20052;-81
2021/06/22 01:03:05;;;;;;;7.93;5.13;;;;;;;22.34;61.55;94414.09;2974145;39;20310;-81
2021/06/22 01:05:07;;;;;;;5.97;4.63;;;;;;;21.97;62.73;94420.56;2984367;39;20350;-84
2021/06/22 01:07:56;;;;;;;10.52;5.47;;;;;;;21.79;63.63;94426.06;2976192;39;20067;-82
2021/06/22 01:09:58;;;;;;;7.82;4.95;;;;;;;21.56;64.14;94425.06;2974182;39;20314;-81
2021/06/22 01:12:00;;;;;;;8.43;5.20;;;;;;;21.31;65.08;94425.28;2979918;39;20085;-71
2021/06/22 01:14:02;;;;;;;7.65;5.18;;;;;;;21.38;65.19;94411.84;2971105;39;20419;-72
2021/06/22 01:16:04;;;;;;;7.35;5.10;;;;;;;21.50;64.64;94404.69;2969188;39;20060;-70
2021/06/22 01:18:06;;;;;;;7.88;5.10;;;;;;;21.66;64.28;94397.81;2973301;40;20056;-71
2021/06/22 01:20:09;;;;;;;8.18;5.35;;;;;;;21.80;63.97;94401.03;2966200;40;20053;-70
2021/06/22 01:22:10;;;;;;;8.73;5.38;;;;;;;21.89;63.80;94396.94;2968632;39;20355;-72
2021/06/22 01:24:14;;;;;;;6.07;4.97;;;;;;;21.97;63.31;94396.56;2968917;40;20356;-69
2021/06/22 01:26:16;;;;;;;7.60;5.65;;;;;;;22.06;63.05;94399.66;2973299;39;20067;-70
2021/06/22 01:28:18;;;;;;;8.10;5.15;;;;;;;22.12;62.93;94395.25;2972889;39;20105;-72
2021/06/22 01:30:20;;;;;;;9.60;5.45;;;;;;;22.16;62.75;94396.41;2974226;39;20060;-72
2021/06/22 01:32:22;;;;;;;6.88;5.13;;;;;;;22.16;62.75;94397.19;2970615;39;20574;-71
2021/06/22 01:34:26;;;;;;;7.55;5.18;;;;;;;21.88;63.55;94398.00;2975530;39;20052;-73
2021/06/22 01:36:30;;;;;;;9.77;5.50;;;;;;;21.76;63.89;94400.69;2972069;39;20092;-73
2021/06/22 01:38:31;;;;;;;12.45;6.20;;;;;;;21.67;64.37;94396.78;2971044;39;20099;-72
2021/06/22 01:40:42;;;;;;;8.27;5.05;;;;;;;21.49;65.12;94408.41;2974926;40;20141;-70
2021/06/22 01:42:43;;;;;;;9.93;6.38;;;;;;;21.38;65.23;94403.84;2967056;40;20056;-73
2021/06/22 01:44:47;;;;;;;8.68;5.38;;;;;;;21.35;65.35;94407.78;2975817;39;20140;-70
2021/06/22 01:46:49;;;;;;;7.10;5.20;;;;;;;21.44;65.14;94405.59;2972047;39;20067;-71
2021/06/22 01:48:51;;;;;;;6.03;5.20;;;;;;;21.53;65.14;94404.22;2975371;39;20048;-80
2021/06/22 01:50:53;;;;;;;11.43;5.07;;;;;;;21.61;64.71;94405.69;2972167;39;20128;-82
2021/06/22 01:52:54;;;;;;;6.65;5.63;;;;;;;21.71;64.52;94407.78;2974875;39;20131;-83
2021/06/22 01:54:58;;;;;;;7.82;5.70;;;;;;;21.80;64.14;94419.69;2972383;39;20117;-81
2021/06/22 01:57:00;;;;;;;9.32;5.60;;;;;;;21.84;64.11;94418.97;2970610;40;20097;-82
2021/06/22 01:59:03;;;;;;;7.55;5.85;;;;;;;21.62;65.07;94423.34;2979774;39;20425;-82
2021/06/22 02:01:05;;;;;;;10.98;5.65;;;;;;;21.33;66.11;94431.19;2974215;39;20060;-82
2021/06/22 02:03:12;;;;;;;8.73;6.07;;;;;;;21.07;67.50;94435.13;2978226;39;20085;-81
2021/06/22 02:05:15;;;;;;;10.85;6.18;;;;;;;20.72;69.09;94432.44;2978227;39;20052;-82
2021/06/22 02:07:16;;;;;;;7.20;5.78;;;;;;;20.69;69.43;94430.19;2980092;39;20144;-83
2021/06/22 02:09:18;;;;;;;7.97;5.88;;;;;;;20.83;68.99;94432.44;2981622;40;20056;-84
2021/06/22 02:11:20;;;;;;;12.55;6.32;;;;;;;21.04;68.17;94432.94;2974746;39;20059;-82
2021/06/22 02:13:22;;;;;;;9.57;4.78;;;;;;;21.20;67.76;94426.91;2977112;39;20056;-82
2021/06/22 02:15:24;;;;;;;7.10;5.18;;;;;;;21.36;67.21;94427.25;2977468;39;20131;-82
2021/06/22 02:17:26;;;;;;;7.05;5.35;;;;;;;21.46;66.85;94417.66;2974525;40;20070;-82
2021/06/22 02:19:29;;;;;;;5.60;4.70;;;;;;;21.55;66.66;94420.75;2975522;39;20048;-82
2021/06/22 02:21:31;;;;;;;7.38;5.25;;;;;;;21.60;66.40;94420.88;2973121;39;20302;-82
2021/06/22 02:23:34;;;;;;;8.23;5.45;;;;;;;21.66;66.03;94422.63;2972265;39;20364;-80
2021/06/22 02:25:36;;;;;;;8.02;5.70;;;;;;;21.71;66.18;94421.91;2974624;40;20078;-81
2021/06/22 02:27:38;;;;;;;9.15;5.40;;;;;;;21.71;66.08;94426.44;2972837;39;20113;-80
2021/06/22 02:29:40;;;;;;;6.80;4.65;;;;;;;21.70;66.27;94424.81;2976137;40;20356;-83
2021/06/22 02:31:41;;;;;;;9.30;5.57;;;;;;;21.71;66.15;94418.44;2972775;39;20064;-82
2021/06/22 02:33:43;;;;;;;7.80;4.97;;;;;;;21.64;66.48;94416.72;2977386;39;20075;-81
2021/06/22 02:35:45;;;;;;;6.70;5.53;;;;;;;21.57;66.65;94407.22;2975769;39;20083;-72
2021/06/22 02:37:51;;;;;;;8.35;5.45;;;;;;;21.51;67.04;94418.81;2975411;39;20109;-70
2021/06/22 02:39:53;;;;;;;9.98;5.28;;;;;;;21.45;67.14;94416.03;2972031;39;20059;-72
2021/06/22 02:41:54;;;;;;;10.75;5.32;;;;;;;21.41;67.07;94409.56;2974352;39;20124;-70
2021/06/22 02:43:56;;;;;;;6.30;5.07;;;;;;;21.41;67.29;94406.06;2968601;39;20056;-71
2021/06/22 02:45:58;;;;;;;6.75;5.43;;;;;;;21.38;67.13;94411.84;2968316;40;20060;-71
2021/06/22 02:48:00;;;;;;;7.05;4.97;;;;;;;21.41;66.96;94408.72;2971454;39;20372;-70
2021/06/22 02:50:04;;;;;;;8.10;5.25;;;;;;;21.40;67.14;94421.25;2971654;40;20063;-72
2021/06/22 02:52:06;;;;;;;7.00;5.20;;;;;;;21.32;67.26;94424.25;2974084;39;20071;-72
2021/06/22 02:54:07;;;;;;;11.35;5.47;;;;;;;21.23;67.73;94423.78;2975355;39;20377;-70
2021/06/22 02:56:09;;;;;;;7.35;5.20;;;;;;;21.23;67.53;94421.13;2972558;39;20134;-69
2021/06/22 02:58:11;;;;;;;8.15;5.40;;;;;;;21.25;67.54;94415.53;2972070;39;20049;-71
2021/06/22 03:00:16;;;;;;;7.05;5.60;;;;;;;21.26;67.69;94417.19;2972099;39;20071;-71
2021/06/22 03:02:17;;;;;;;7.80;5.80;;;;;;;21.17;67.97;94413.25;2974942;39;20438;-71
2021/06/22 03:04:19;;;;;;;8.20;5.80;;;;;;;20.75;69.49;94414.13;2973216;39;20068;-70
2021/06/22 03:06:20;;;;;;;7.25;5.97;;;;;;;20.34;71.34;94421.06;2969834;39;20092;-70
2021/06/22 03:08:22;;;;;;;9.48;6.00;;;;;;;20.27;71.57;94430.97;2975305;39;20296;-81
2021/06/22 03:10:25;;;;;;;9.65;5.53;;;;;;;20.19;71.97;94418.81;2975460;39;20060;-83
2021/06/22 03:12:26;;;;;;;9.63;5.90;;;;;;;20.07;72.51;94417.13;2975225;39;20423;-81
2021/06/22 03:14:28;;;;;;;7.13;5.93;;;;;;;20.09;72.37;94423.03;2976144;39;20052;-81
2021/06/22 03:16:30;;;;;;;11.15;6.25;;;;;;;20.07;72.43;94430.41;2976162;39;20068;-82
2021/06/22 03:18:32;;;;;;;12.80;6.97;;;;;;;20.17;72.37;94436.03;2973806;40;20062;-82
2021/06/22 03:20:34;;;;;;;11.07;7.57;;;;;;;20.12;72.50;94431.38;2974329;39;20096;-81
2021/06/22 03:22:36;;;;;;;9.00;7.28;;;;;;;20.18;72.33;94427.81;2975561;39;20378;-81
2021/06/22 03:24:38;;;;;;;11.35;7.85;;;;;;;20.12;72.69;94425.25;2975376;39;20151;-82
2021/06/22 03:26:40;;;;;;;14.77;7.80;;;;;;;20.09;72.53;94429.19;2973968;40;20056;-82
2021/06/22 03:28:42;;;;;;;10.20;7.68;;;;;;;20.14;72.56;94434.63;2974162;39;20434;-82
2021/06/22 03:30:45;;;;;;;9.23;7.18;;;;;;;20.31;72.21;94428.69;2971778;39;20040;-81
2021/06/22 03:32:47;;;;;;;9.18;7.60;;;;;;;20.24;72.18;94432.25;2978948;39;20493;-81
2021/06/22 03:34:49;;;;;;;12.30;7.18;;;;;;;20.22;72.33;94430.84;2977068;39;20112;-71
2021/06/22 03:36:50;;;;;;;9.07;6.70;;;;;;;20.24;72.17;94431.41;2971537;39;20064;-71
2021/06/22 03:38:53;;;;;;;8.27;6.00;;;;;;;20.33;71.76;94421.31;2973741;39;20422;-71
2021/06/22 03:40:59;;;;;;;7.47;6.10;;;;;;;20.35;71.54;94430.66;2973835;39;20044;-71
2021/06/22 03:43:20;;;;;;;9.13;6.10;;;;;;;20.38;71.49;94435.53;2974147;39;20425;-72
2021/06/22 03:45:23;;;;;;;8.15;5.85;;;;;;;20.39;71.58;94437.16;2974330;39;20114;-71
2021/06/22 03:47:26;;;;;;;10.35;5.82;;;;;;;20.32;71.69;94425.78;2964989;40;20060;-71
2021/06/22 03:49:28;;;;;;;7.50;6.30;;;;;;;20.45;71.37;94430.91;2973295;39;20088;-71
2021/06/22 03:51:29;;;;;;;10.48;6.13;;;;;;;20.58;70.94;94427.28;2975027;39;20144;-70
2021/06/22 03:53:31;;;;;;;10.88;5.95;;;;;;;20.56;70.88;94425.84;2969814;39;20060;-71
2021/06/22 03:55:33;;;;;;;6.93;5.63;;;;;;;20.64;70.56;94423.72;2972955;39;20336;-71
2021/06/22 03:57:35;;;;;;;7.63;6.10;;;;;;;20.66;70.43;94434.94;2970577;39;20145;-73
2021/06/22 03:59:36;;;;;;;10.25;6.20;;;;;;;20.35;71.84;94440.47;2971069;40;20152;-71
2021/06/22 04:01:38;;;;;;;8.23;6.00;;;;;;;20.05;72.96;94444.75;2966524;39;20109;-72
2021/06/22 04:03:40;;;;;;;7.45;6.13;;;;;;;20.16;72.37;94447.72;2967222;39;20068;-71
2021/06/22 04:05:42;;;;;;;7.95;5.70;;;;;;;20.25;72.45;94439.19;2968109;39;20075;-71
2021/06/22 04:07:43;;;;;;;12.77;6.57;;;;;;;20.48;71.59;94435.00;2968783;39;20048;-70
2021/06/22 04:09:45;;;;;;;10.98;5.95;;;;;;;20.72;70.70;94440.41;2958785;40;20499;-70
2021/06/22 04:11:47;;;;;;;10.57;6.65;;;;;;;20.93;69.90;94442.53;2967147;40;20060;-72
2021/06/22 04:13:48;;;;;;;9.88;6.32;;;;;;;21.10;69.32;94450.66;2975121;39;20509;-82
2021/06/22 04:15:52;;;;;;;8.48;5.85;;;;;;;21.21;68.63;94449.84;2972742;39;20424;-83
2021/06/22 04:18:05;;;;;;;8.60;6.40;;;;;;;21.36;68.35;94453.88;2976594;39;20088;-82
2021/06/22 04:20:07;;;;;;;9.10;6.47;;;;;;;21.43;67.91;94447.44;2969604;40;20432;-71
2021/06/22 04:22:09;;;;;;;11.55;6.85;;;;;;;21.55;67.74;94449.28;2971399;39;20164;-70
2021/06/22 04:24:11;;;;;;;8.10;6.93;;;;;;;21.62;66.89;94456.13;2967108;39;20491;-70
2021/06/22 04:26:12;;;;;;;10.32;5.53;;;;;;;21.70;66.82;94456.81;2966867;39;20076;-72
2021/06/22 04:28:14;;;;;;;13.30;6.53;;;;;;;21.78;66.51;94453.78;2967601;40;20044;-74
2021/06/22 04:30:17;;;;;;;9.82;6.15;;;;;;;21.82;65.86;94460.25;2968611;39;20354;-71
2021/06/22 04:32:18;;;;;;;8.32;6.10;;;;;;;21.91;65.90;94458.03;2967465;39;20075;-70
2021/06/22 04:34:20;;;;;;;7.65;5.25;;;;;;;21.98;65.63;94464.84;2967780;39;20053;-70
2021/06/22 04:36:22;;;;;;;9.25;6.45;;;;;;;22.03;64.95;94456.97;2966811;39;20127;-72
2021/06/22 04:38:26;;;;;;;11.25;6.15;;;;;;;22.06;64.89;94461.81;2966280;39;20052;-70
2021/06/22 04:40:28;;;;;;;12.32;5.63;;;;;;;22.13;64.42;94468.88;2965424;39;20332;-71
2021/06/22 04:42:30;;;;;;;7.13;5.67;;;;;;;22.22;64.32;94480.78;2973676;39;20078;-71
2021/06/22 04:44:31;;;;;;;8.75;5.68;;;;;;;22.31;64.13;94476.75;2969369;39;20113;-71
2021/06/22 04:46:33;;;;;;;9.55;5.75;;;;;;;22.31;64.13;94474.09;2974321;40;20055;-71
2021/06/22 04:48:38;;;;;;;10.55;6.20;;;;;;;22.31;63.80;94466.09;2967243;39;20052;-71
2021/06/22 04:50:40;;;;;;;9.50;6.10;;;;;;;22.28;64.18;94477.22;2972501;40;20093;-71
2021/06/22 04:52:42;;;;;;;7.93;6.40;;;;;;;22.28;64.33;94470.03;2967133;39;20069;-71
2021/06/22 04:54:43;;;;;;;7.95;5.88;;;;;;;22.35;64.47;94477.06;2973642;39;20059;-70
2021/06/22 04:56:48;;;;;;;9.68;5.65;;;;;;;22.41;64.37;94474.28;2975103;39;20408;-71
2021/06/22 04:58:54;;;;;;;9.90;6.15;;;;;;;22.36;64.24;94479.50;2973111;39;20064;-71
2021/06/22 05:00:56;;;;;;;7.45;5.82;;;;;;;22.31;64.36;94483.97;2973264;39;20109;-71
2021/06/22 05:02:59;;;;;;;8.85;6.53;;;;;;;22.25;64.56;94485.72;2969551;39;20141;-72
2021/06/22 05:05:04;;;;;;;8.15;5.95;;;;;;;21.53;67.62;94489.50;2968786;40;20049;-71
2021/06/22 05:07:06;;;;;;;12.18;7.15;;;;;;;21.07;69.22;94488.38;2967965;39;20145;-71
2021/06/22 05:09:08;;;;;;;11.30;7.10;;;;;;;21.21;69.12;94486.34;2972624;39;20063;-73
2021/06/22 05:11:10;;;;;;;12.00;6.15;;;;;;;21.04;69.95;94483.53;2968599;39;20320;-70
2021/06/22 05:13:11;;;;;;;8.55;6.70;;;;;;;21.04;69.95;94476.34;2968913;39;20056;-70
2021/06/22 05:15:13;;;;;;;12.98;6.47;;;;;;;21.06;70.25;94478.78;2968102;40;20157;-72
2021/06/22 05:17:15;;;;;;;9.15;6.68;;;;;;;21.05;70.33;94483.28;2974813;39;20048;-71
2021/06/22 05:19:17;;;;;;;9.07;6.38;;;;;;;21.02;70.71;94488.28;2974713;39;20065;-72
2021/06/22 05:21:19;;;;;;;9.23;6.10;;;;;;;21.08;70.43;94490.03;2968591;39;20117;-72
2021/06/22 05:23:20;;;;;;;13.70;7.13;;;;;;;20.91;70.75;94483.72;2965486;40;20060;-71
2021/06/22 05:25:22;;;;;;;7.50;5.97;;;;;;;20.73;71.21;94493.41;2968792;40;20437;-70
2021/06/22 05:27:24;;;;;;;7.75;6.18;;;;;;;20.76;71.98;94484.16;2968771;39;20060;-71
2021/06/22 05:29:26;;;;;;;9.48;7.20;;;;;;;20.82;71.93;94485.91;2976116;40;20112;-82
2021/06/22 05:31:28;;;;;;;9.00;7.00;;;;;;;20.72;72.29;94489.13;2990937;39;20439;-83
2021/06/22 05:33:30;;;;;;;11.23;6.32;;;;;;;20.74;72.82;94496.91;2973939;39;20068;-83
2021/06/22 05:35:32;;;;;;;9.63;6.50;;;;;;;20.71;73.23;94492.00;2974542;39;20083;-85
2021/06/22 05:37:34;;;;;;;7.55;6.10;;;;;;;20.70;72.79;94506.38;2974555;40;20140;-84
2021/06/22 05:39:36;;;;;;;7.03;6.03;;;;;;;20.82;72.23;94491.22;2977651;39;20375;-85
2021/06/22 05:41:37;;;;;;;15.45;6.53;;;;;;;21.05;71.50;94488.59;2974523;39;20051;-83
2021/06/22 05:43:40;;;;;;;9.23;6.13;;;;;;;21.21;70.51;94489.81;2977615;39;20408;-81
2021/06/22 05:45:41;;;;;;;8.35;6.05;;;;;;;21.24;70.09;94494.66;2971793;39;20336;-81
2021/06/22 05:47:43;;;;;;;10.98;5.72;;;;;;;21.43;69.83;94495.41;2971496;39;20332;-83
2021/06/22 05:49:45;;;;;;;17.08;7.10;;;;;;;21.65;68.99;94487.63;2975067;40;20117;-83
2021/06/22 05:51:47;;;;;;;8.70;6.32;;;;;;;21.77;67.99;94486.81;2973184;39;20052;-83
2021/06/22 05:53:48;;;;;;;84.97;13.85;;;;;;;21.85;67.55;94492.63;2972655;40;20467;-85
2021/06/22 05:55:50;;;;;;;42.65;10.40;;;;;;;22.07;67.12;94489.34;2970951;40;20048;-86
2021/06/22 05:57:56;;;;;;;12.43;6.28;;;;;;;22.27;66.51;94484.41;2975635;39;20083;-82
2021/06/22 05:59:57;;;;;;;32.70;7.57;;;;;;;22.22;66.85;94489.66;2974395;40;20144;-82
2021/06/22 06:01:59;;;;;;;38.53;7.65;;;;;;;22.44;66.35;94484.47;2978135;39;20072;-83
2021/06/22 06:04:02;;;;;;;10.88;6.20;;;;;;;22.45;66.08;94490.63;2976502;39;20405;-83
2021/06/22 06:06:04;;;;;;;42.25;9.45;;;;;;;22.61;65.73;94484.53;2977681;39;20355;-80
2021/06/22 06:08:06;;;;;;;25.15;6.88;;;;;;;22.39;66.21;94480.88;2976604;39;20048;-83
2021/06/22 06:10:09;;;;;;;28.13;7.25;;;;;;;22.54;66.59;94483.03;2975437;39;20048;-84
2021/06/22 06:12:11;;;;;;;12.15;6.70;;;;;;;22.53;66.07;94484.09;2972009;39;20056;-83
2021/06/22 06:14:13;;;;;;;11.70;5.85;;;;;;;22.55;65.82;94482.81;2975685;39;20115;-84
2021/06/22 06:16:14;;;;;;;8.73;5.68;;;;;;;22.50;66.66;94482.72;2972819;39;20059;-82
2021/06/22 06:18:16;;;;;;;30.15;7.20;;;;;;;22.66;66.10;94491.81;2977897;39;20414;-82
2021/06/22 06:20:18;;;;;;;14.85;7.20;;;;;;;22.90;65.61;94495.19;2978106;39;20083;-84
2021/06/22 06:22:20;;;;;;;31.60;8.80;;;;;;;23.10;64.55;94494.72;2977169;39;20088;-82
2021/06/22 06:24:22;;;;;;;41.20;8.35;;;;;;;23.15;64.39;94499.38;2970923;40;20394;-84
2021/06/22 06:26:26;;;;;;;16.92;6.65;;;;;;;23.12;63.97;94494.50;2968900;40;20055;-85
2021/06/22 06:28:40;;;;;;;18.05;6.18;;;;;;;23.28;63.38;94493.72;2971190;40;20063;-84
2021/06/22 06:30:42;;;;;;;10.93;6.53;;;;;;;23.34;63.25;94497.25;2974420;39;20148;-84
2021/06/22 06:32:45;;;;;;;20.38;6.60;;;;;;;23.20;63.20;94496.78;2976642;40;20068;-83
2021/06/22 06:34:47;;;;;;;13.20;5.68;;;;;;;23.39;62.61;94500.03;2976730;39;20084;-81
2021/06/22 06:36:48;;;;;;;10.68;6.43;;;;;;;23.27;62.77;94503.59;2975322;40;20056;-82
2021/06/22 06:38:50;;;;;;;9.00;6.47;;;;;;;23.47;62.29;94507.66;2975301;39;20068;-82
2021/06/22 06:40:52;;;;;;;31.55;9.02;;;;;;;23.54;62.18;94513.63;2982414;39;20107;-85
2021/06/22 06:42:54;;;;;;;67.95;10.65;;;;;;;23.66;61.86;94511.69;2978990;39;20043;-85
2021/06/22 06:44:55;;;;;;;39.67;9.65;;;;;;;23.73;61.34;94506.16;2978491;39;20309;-82
2021/06/22 06:46:57;;;;;;;26.33;8.32;;;;;;;23.88;61.42;94508.25;2972858;39;20084;-82
2021/06/22 06:48:59;;;;;;;20.67;7.15;;;;;;;24.08;61.12;94513.88;2977243;40;20139;-83
2021/06/22 06:51:03;;;;;;;33.90;9.20;;;;;;;24.17;59.80;94516.13;2972854;39;20149;-82
2021/06/22 06:53:05;;;;;;;65.45;10.75;;;;;;;24.18;59.82;94518.56;2971283;40;20067;-83
2021/06/22 06:55:26;;;;;;;61.15;12.55;;;;;;;24.40;59.52;94521.22;2972964;39;20063;-82
2021/06/22 06:57:30;;;;;;;32.67;8.65;;;;;;;24.38;58.97;94512.63;2962555;40;20063;-83
2021/06/22 06:59:32;;;;;;;102.68;13.88;;;;;;;24.16;59.50;94517.19;2974003;39;20136;-82
2021/06/22 07:01:33;;;;;;;33.40;8.98;;;;;;;24.27;60.37;94521.63;2971617;39;20405;-83
2021/06/22 07:03:36;;;;;;;18.33;7.43;;;;;;;24.35;59.16;94518.50;2974474;39;20462;-83
2021/06/22 07:05:38;;;;;;;83.82;12.18;;;;;;;24.36;59.79;94527.34;2977109;39;20135;-82
2021/06/22 07:07:40;;;;;;;54.90;11.48;;;;;;;24.54;60.15;94527.03;2979133;39;20048;-84
2021/06/22 07:09:42;;;;;;;70.85;12.25;;;;;;;24.77;60.00;94525.97;2969270;39;20410;-82
2021/06/22 07:11:45;;;;;;;40.50;9.90;;;;;;;24.94;58.68;94524.00;2975780;39;20068;-82
2021/06/22 07:13:51;;;;;;;40.45;8.77;;;;;;;25.08;58.12;94531.63;2972895;39;20144;-83
2021/06/22 07:15:52;;;;;;;13.38;6.43;;;;;;;25.23;57.75;94534.50;2970199;40;20096;-82
2021/06/22 07:17:54;;;;;;;15.43;7.38;;;;;;;25.18;57.72;94528.22;2968915;39;20068;-83
2021/06/22 07:19:56;;;;;;;14.25;6.85;;;;;;;25.05;57.73;94530.25;2972242;39;20147;-83
2021/06/22 07:21:58;;;;;;;13.40;6.47;;;;;;;25.15;57.68;94526.88;2973653;39;20051;-83
2021/06/22 07:24:01;;;;;;;13.32;7.05;;;;;;;25.36;56.87;94527.06;2974124;39;20364;-82
2021/06/22 07:26:07;;;;;;;110.53;14.18;;;;;;;25.52;56.54;94520.78;2967710;39;20040;-82
2021/06/22 07:28:09;;;;;;;50.90;10.35;;;;;;;25.68;55.72;94527.88;2979294;39;20039;-85
2021/06/22 07:30:11;;;;;;;36.45;9.60;;;;;;;25.83;55.53;94523.66;2976433;39;20370;-85
2021/06/22 07:32:13;;;;;;;45.58;9.02;;;;;;;25.93;55.78;94526.44;2974520;40;20346;-82
2021/06/22 07:34:15;;;;;;;38.42;9.80;;;;;;;26.01;54.72;94525.97;2976212;39;20054;-84
2021/06/22 07:36:17;;;;;;;18.45;6.32;;;;;;;26.08;54.51;94529.22;2975647;40;20470;-84
2021/06/22 07:38:19;;;;;;;23.83;7.63;;;;;;;26.12;54.49;94524.94;2976720;40;20059;-86
2021/06/22 07:40:21;;;;;;;37.58;8.45;;;;;;;26.00;54.70;94531.59;2967080;40;20064;-85
2021/06/22 07:42:22;;;;;;;84.05;11.68;;;;;;;25.86;55.64;94525.84;2975802;39;20058;-84
2021/06/22 07:44:24;;;;;;;47.83;8.82;;;;;;;25.82;55.95;94530.91;2974537;39;20102;-85
2021/06/22 07:46:26;;;;;;;49.75;9.18;;;;;;;25.31;56.18;94517.91;2966220;39;20386;-73
2021/06/22 07:48:28;;;;;;;29.48;6.95;;;;;;;25.01;57.48;94525.66;2969151;39;20051;-72
2021/06/22 07:50:30;;;;;;;22.80;7.60;;;;;;;25.09;57.56;94522.53;2973432;39;20052;-73
2021/06/22 07:52:32;;;;;;;15.30;7.15;;;;;;;24.97;57.98;94525.34;2967207;39;20084;-73
2021/06/22 07:54:33;;;;;;;12.15;6.55;;;;;;;25.11;57.47;94531.13;2968711;40;20136;-72
2021/06/22 07:56:35;;;;;;;10.60;7.40;;;;;;;25.10;57.03;94524.97;2973209;40;20320;-71
2021/06/22 07:58:37;;;;;;;8.32;6.40;;;;;;;25.16;56.95;94528.47;2972151;39;20092;-73
2021/06/22 08:00:45;;;;;;;18.17;6.72;;;;;;;25.28;56.74;94531.84;2971295;39;20067;-70
2021/06/22 08:02:47;;;;;;;19.33;6.85;;;;;;;25.30;56.94;94535.06;2972016;39;20055;-73
2021/06/22 08:04:48;;;;;;;13.38;8.45;;;;;;;25.52;56.29;94531.50;2978217;39;20055;-72
2021/06/22 08:06:53;;;;;;;19.98;6.43;;;;;;;25.66;55.10;94527.31;2967710;39;20421;-71
2021/06/22 08:08:54;;;;;;;15.77;6.30;;;;;;;25.69;55.50;94523.31;2968259;39;20100;-73
2021/06/22 08:10:57;;;;;;;13.13;6.18;;;;;;;25.92;55.42;94519.44;2967859;39;20093;-72
2021/06/22 08:12:59;;;;;;;14.50;6.60;;;;;;;26.17;54.52;94526.03;2967611;39;20444;-70
2021/06/22 08:15:01;;;;;;;15.30;6.60;;;;;;;26.29;54.31;94521.28;2969592;40;20075;-74
2021/06/22 08:17:02;;;;;;;22.80;6.57;;;;;;;26.30;54.25;94522.88;2971322;39;20056;-72
2021/06/22 08:19:04;;;;;;;10.73;6.30;;;;;;;26.34;54.35;94516.72;2967969;40;20145;-73
2021/06/22 08:21:06;;;;;;;12.65;7.03;;;;;;;26.53;54.10;94517.06;2967998;39;20259;-72
2021/06/22 08:23:08;;;;;;;11.25;6.85;;;;;;;26.72;53.00;94512.06;2968736;39;20376;-71
2021/06/22 08:25:11;;;;;;;9.25;7.10;;;;;;;26.56;52.87;94515.75;2967645;39;20064;-71
2021/06/22 08:27:13;;;;;;;18.23;7.80;;;;;;;26.42;54.30;94517.31;2966850;39;20399;-72
2021/06/22 08:29:14;;;;;;;16.55;7.35;;;;;;;26.65;54.74;94516.88;2971529;39;20079;-73
2021/06/22 08:31:18;;;;;;;13.27;6.78;;;;;;;26.65;54.12;94516.88;2967693;39;20153;-75
2021/06/22 08:33:21;;;;;;;39.55;9.68;;;;;;;26.85;53.70;94516.13;2967311;40;20047;-72
2021/06/22 08:35:25;;;;;;;39.00;8.65;;;;;;;27.05;53.72;94514.53;2968992;39;20407;-73
2021/06/22 08:37:27;;;;;;;28.95;7.40;;;;;;;27.23;53.07;94514.03;2967121;40;20099;-72
2021/06/22 08:39:29;;;;;;;17.75;6.72;;;;;;;27.41;52.51;94510.03;2969354;39;20317;-72
2021/06/22 08:41:33;;;;;;;15.15;7.10;;;;;;;27.22;51.98;94509.75;2972612;39;20340;-72
2021/06/22 08:43:36;;;;;;;19.90;7.57;;;;;;;27.28;51.97;94514.06;2969677;39;20060;-72
2021/06/22 08:45:39;;;;;;;16.75;7.45;;;;;;;27.10;52.35;94509.16;2971853;39;20192;-72
2021/06/22 08:47:41;;;;;;;11.80;6.53;;;;;;;27.06;52.88;94510.75;2969576;40;20113;-71
2021/06/22 08:49:43;;;;;;;16.55;7.88;;;;;;;26.69;53.81;94507.19;2971013;39;20214;-73
2021/06/22 08:51:44;;;;;;;19.67;8.18;;;;;;;26.80;53.53;94508.03;2973729;40;20055;-74
2021/06/22 08:53:46;;;;;;;16.90;7.15;;;;;;;26.92;53.60;94511.28;2974736;39;20140;-75
2021/06/22 08:55:48;;;;;;;15.02;7.03;;;;;;;27.08;52.93;94511.31;2973272;39;20099;-73
2021/06/22 08:57:50;;;;;;;16.02;7.50;;;;;;;27.31;52.62;94513.50;2966553;39;20135;-72
2021/06/22 08:59:53;;;;;;;20.52;7.30;;;;;;;27.39;52.18;94514.88;2973672;40;20045;-72
2021/06/22 09:01:55;;;;;;;20.17;7.95;;;;;;;27.45;52.27;94510.28;2971838;39;20052;-76
2021/06/22 09:03:57;;;;;;;17.17;7.15;;;;;;;27.40;51.96;94518.34;2973632;39;20124;-73
2021/06/22 09:05:59;;;;;;;18.85;7.45;;;;;;;27.37;52.13;94512.44;2969337;39;20084;-71
2021/06/22 09:08:01;;;;;;;13.05;6.45;;;;;;;27.40;51.89;94515.66;2974255;40;20083;-73
2021/06/22 09:10:06;;;;;;;11.18;6.68;;;;;;;27.61;51.37;94503.81;2975908;39;20191;-72
2021/06/22 09:12:10;;;;;;;18.63;7.72;;;;;;;27.69;51.41;94505.97;2972387;40;20043;-72
2021/06/22 09:14:13;;;;;;;10.55;6.63;;;;;;;27.82;51.60;94503.81;2975455;39;20043;-72
2021/06/22 09:16:16;;;;;;;22.55;7.40;;;;;;;28.03;51.49;94509.97;2969307;39;20056;-72
2021/06/22 09:18:33;;;;;;;10.20;6.82;;;;;;;28.18;50.50;94508.06;2966355;40;20060;-75
2021/06/22 09:20:41;;;;;;;11.27;7.10;;;;;;;28.23;50.22;94501.03;2969245;40;20170;-72
2021/06/22 09:22:43;;;;;;;11.88;7.00;;;;;;;28.26;50.99;94501.28;2968503;39;20406;-72
2021/06/22 09:25:09;;;;;;;14.98;7.43;;;;;;;28.38;49.70;94503.69;2976636;39;20060;-84
2021/06/22 09:27:11;;;;;;;13.38;7.50;;;;;;;28.34;49.45;94503.41;2975539;39;20132;-83
2021/06/22 09:29:15;;;;;;;14.82;7.35;;;;;;;28.25;50.65;94507.75;2978020;40;20064;-85
2021/06/22 09:31:22;;;;;;;12.77;7.68;;;;;;;28.39;50.30;94510.66;2978202;39;20052;-82
2021/06/22 09:33:30;;;;;;;17.20;7.38;;;;;;;28.63;50.19;94504.66;2977567;39;20344;-84
2021/06/22 09:35:32;;;;;;;20.13;7.45;;;;;;;28.79;49.42;94512.41;2975140;39;20137;-84